Time;durP1;ratioP1;P1;durP2;ratioP2;P2;SDS_P1;SDS_P2;PMS_P1;PMS_P2;Temp;Humidity;BMP_temperature;BMP_pressure;BME280_temperature;BME280_humidity;BME280_pressure;Samples;Min_cycle;Max_cycle;Signal;HPM_P1;HPM_P2
2022/05/26 00:00:29;;;;;;;14.48;13.00;;;;;;;13.55;85.16;101637.19;5109199;28;20110;-66
2022/05/26 00:02:54;;;;;;;15.73;14.23;;;;;;;13.56;85.03;101633.63;5109632;28;20030;-69
2022/05/26 00:05:19;;;;;;;15.07;13.55;;;;;;;13.54;85.21;101631.16;5126772;27;20035;-64
2022/05/26 00:07:45;;;;;;;14.23;12.80;;;;;;;13.56;85.31;101625.81;5129660;27;20053;-63
2022/05/26 00:10:10;;;;;;;14.75;13.20;;;;;;;13.53;85.70;101618.22;5129402;27;20019;-65
2022/05/26 00:12:35;;;;;;;15.15;13.55;;;;;;;13.37;86.12;101618.66;5124678;27;20471;-64
2022/05/26 00:15:01;;;;;;;14.40;13.00;;;;;;;13.46;86.01;101617.06;5112687;27;20055;-64
2022/05/26 00:17:28;;;;;;;13.38;12.07;;;;;;;13.52;85.82;101627.00;5118440;27;20031;-65
2022/05/26 00:19:53;;;;;;;14.45;13.05;;;;;;;13.49;85.78;101637.69;5128809;27;20027;-66
2022/05/26 00:22:20;;;;;;;15.13;13.45;;;;;;;13.44;86.22;101619.81;5122729;27;20501;-66
2022/05/26 00:24:45;;;;;;;14.57;13.18;;;;;;;13.41;86.01;101629.63;5128145;27;20051;-66
2022/05/26 00:27:11;;;;;;;14.45;12.95;;;;;;;13.46;85.80;101619.66;5128694;27;20049;-65
2022/05/26 00:29:36;;;;;;;15.00;13.50;;;;;;;13.47;86.00;101635.19;5128566;27;20105;-64
2022/05/26 00:32:01;;;;;;;14.32;12.82;;;;;;;13.49;86.12;101637.69;5128930;27;20451;-66
2022/05/26 00:34:27;;;;;;;15.88;14.27;;;;;;;13.46;86.49;101632.69;5120531;27;20455;-65
2022/05/26 00:36:52;;;;;;;14.40;13.00;;;;;;;13.52;86.36;101634.81;5124322;27;20466;-63
2022/05/26 00:39:22;;;;;;;14.68;13.25;;;;;;;13.52;86.13;101637.41;5119285;27;20068;-68
2022/05/26 00:42:08;;;;;;;15.27;13.77;;;;;;;13.55;85.51;101637.19;5128976;27;20027;-64
2022/05/26 00:44:35;;;;;;;15.35;13.85;;;;;;;13.50;85.86;101634.13;5127074;27;20039;-69
2022/05/26 00:47:29;;;;;;;15.95;14.27;;;;;;;13.49;86.11;101642.91;5127903;27;20098;-64
2022/05/26 00:49:57;;;;;;;15.70;14.02;;;;;;;13.48;85.91;101641.25;5105220;28;20074;-67
2022/05/26 00:52:29;;;;;;;16.70;14.70;;;;;;;13.49;85.82;101643.72;5109264;27;20094;-64
2022/05/26 00:54:59;;;;;;;18.35;15.65;;;;;;;13.45;86.21;101641.47;5122854;27;20020;-64
2022/05/26 00:57:45;;;;;;;16.65;15.05;;;;;;;13.46;86.19;101640.53;5127846;27;20106;-65
2022/05/26 01:00:15;;;;;;;16.92;15.15;;;;;;;13.43;85.84;101640.78;5128781;27;20026;-64
2022/05/26 01:02:58;;;;;;;17.55;15.77;;;;;;;13.48;86.12;101636.03;5128141;27;20550;-65
2022/05/26 01:05:28;;;;;;;17.38;15.25;;;;;;;13.40;86.55;101633.19;5107589;28;20031;-65
2022/05/26 01:07:56;;;;;;;16.52;14.82;;;;;;;13.47;85.78;101644.78;5120968;27;20034;-66
2022/05/26 01:10:21;;;;;;;17.10;15.30;;;;;;;13.46;85.83;101638.75;5128195;27;20482;-64
2022/05/26 01:12:47;;;;;;;18.08;15.95;;;;;;;13.47;85.81;101639.56;5128357;27;20019;-69
2022/05/26 01:15:20;;;;;;;18.42;16.45;;;;;;;13.48;86.05;101646.47;5128665;27;20045;-64
2022/05/26 01:18:05;;;;;;;17.23;14.88;;;;;;;13.53;85.70;101644.28;5127317;27;20062;-68
2022/05/26 01:20:47;;;;;;;20.02;15.65;;;;;;;13.48;85.17;101638.63;5128273;27;20042;-64
2022/05/26 01:23:27;;;;;;;18.00;15.88;;;;;;;13.45;85.54;101646.69;5123292;27;20030;-63
2022/05/26 01:26:23;;;;;;;17.80;15.68;;;;;;;13.49;85.45;101651.53;5107706;28;20036;-65
2022/05/26 01:29:33;;;;;;;17.85;15.82;;;;;;;13.55;85.17;101647.59;5109040;27;20082;-64
2022/05/26 01:32:28;;;;;;;19.88;16.08;;;;;;;13.45;85.69;101657.13;5123553;28;20059;-70
2022/05/26 01:35:08;;;;;;;19.27;16.88;;;;;;;13.47;85.67;101658.63;5120249;27;20039;-67
2022/05/26 01:37:36;;;;;;;19.05;15.80;;;;;;;13.52;85.47;101658.25;5123289;28;20039;-64
2022/05/26 01:40:26;;;;;;;20.77;16.77;;;;;;;13.54;85.35;101657.22;5106209;28;20080;-64
2022/05/26 01:43:10;;;;;;;19.42;15.65;;;;;;;13.52;85.38;101664.31;5107551;28;20027;-64
2022/05/26 01:45:44;;;;;;;19.27;15.63;;;;;;;13.50;85.66;101670.59;5107193;28;20032;-64
2022/05/26 01:48:19;;;;;;;19.75;15.68;;;;;;;13.49;85.68;101669.78;5116299;28;20019;-64
2022/05/26 01:50:58;;;;;;;20.17;15.25;;;;;;;13.44;86.25;101665.88;5128233;27;20023;-65
2022/05/26 01:53:23;;;;;;;16.98;15.07;;;;;;;13.54;85.16;101661.59;5127824;27;20058;-66
2022/05/26 01:55:55;;;;;;;17.55;15.60;;;;;;;13.42;85.95;101662.56;5128428;28;20055;-68
2022/05/26 01:58:35;;;;;;;18.58;15.95;;;;;;;13.46;86.34;101677.00;5117672;27;20092;-65
2022/05/26 02:01:06;;;;;;;19.15;15.60;;;;;;;13.54;84.67;101674.63;5111380;28;20378;-66
2022/05/26 02:03:33;;;;;;;18.83;15.52;;;;;;;13.44;85.89;101660.69;5127435;27;20027;-65
2022/05/26 02:06:08;;;;;;;20.10;15.88;;;;;;;13.46;85.92;101671.78;5127889;27;20496;-64
2022/05/26 02:08:40;;;;;;;18.02;15.20;;;;;;;13.47;85.66;101671.66;5116057;27;20085;-64
2022/05/26 02:11:16;;;;;;;19.88;15.10;;;;;;;13.54;85.41;101674.63;5126874;28;20059;-64
2022/05/26 02:13:49;;;;;;;22.75;16.15;;;;;;;13.46;85.76;101677.00;5115757;27;20031;-64
2022/05/26 02:16:28;;;;;;;19.17;14.70;;;;;;;13.57;85.29;101687.41;5109266;28;20022;-70
2022/05/26 02:19:16;;;;;;;22.15;15.95;;;;;;;13.44;85.59;101681.53;5121362;28;20114;-64
2022/05/26 02:21:51;;;;;;;21.75;15.32;;;;;;;13.55;85.44;101689.31;5127494;28;20072;-65
2022/05/26 02:24:23;;;;;;;18.17;14.50;;;;;;;13.45;85.61;101683.16;5127328;27;20047;-66
2022/05/26 02:26:49;;;;;;;21.73;15.13;;;;;;;13.49;86.23;101689.81;5127299;27;20035;-65
2022/05/26 02:32:02;;;;;;;24.27;14.63;;;;;;;13.49;86.03;101684.59;5116144;27;20110;-66
2022/05/26 02:34:29;;;;;;;20.63;14.73;;;;;;;13.47;85.79;101689.91;5122130;27;20035;-64
2022/05/26 02:36:58;;;;;;;21.10;14.43;;;;;;;13.51;85.57;101693.09;5130492;27;20023;-65
2022/05/26 02:39:23;;;;;;;22.20;14.63;;;;;;;13.53;85.28;101688.59;5129001;27;20661;-64
2022/05/26 02:41:52;;;;;;;24.25;14.35;;;;;;;13.52;85.48;101689.53;5131417;27;20113;-64
2022/05/26 02:44:17;;;;;;;25.67;14.80;;;;;;;13.44;85.66;101684.13;5130632;27;20023;-64
2022/05/26 02:47:03;;;;;;;22.15;14.05;;;;;;;13.50;85.81;101691.44;5131242;27;20142;-64
2022/05/26 02:49:41;;;;;;;22.38;13.60;;;;;;;13.48;86.06;101693.38;5122796;27;20038;-64
2022/05/26 02:52:16;;;;;;;20.50;13.88;;;;;;;13.54;85.36;101692.88;5122024;27;20077;-66
2022/05/26 02:55:23;;;;;;;23.05;14.32;;;;;;;13.48;86.05;101699.41;5125289;27;20106;-64
2022/05/26 02:57:59;;;;;;;19.73;14.07;;;;;;;13.40;85.79;101690.53;5123814;27;20115;-66
2022/05/26 03:00:42;;;;;;;22.85;13.70;;;;;;;13.37;86.16;101706.41;5129020;27;20379;-69
2022/05/26 03:03:16;;;;;;;24.83;14.27;;;;;;;13.42;85.74;101712.06;5116043;27;20474;-69
2022/05/26 03:06:01;;;;;;;22.23;13.70;;;;;;;13.51;85.29;101709.56;5130493;27;20026;-67
2022/05/26 03:08:30;;;;;;;22.38;13.98;;;;;;;13.45;85.45;101704.03;5129865;27;20027;-66
2022/05/26 03:11:05;;;;;;;21.73;13.48;;;;;;;13.34;85.91;101711.84;5130894;27;20391;-64
2022/05/26 03:13:30;;;;;;;21.70;13.20;;;;;;;13.31;86.16;101706.91;5109566;28;20113;-68
2022/05/26 03:15:55;;;;;;;22.52;12.73;;;;;;;13.35;85.88;101714.34;5111339;27;20786;-64
2022/05/26 03:18:21;;;;;;;23.63;14.23;;;;;;;13.26;86.52;101707.25;5120749;27;20464;-65
2022/05/26 03:20:46;;;;;;;25.83;14.85;;;;;;;13.23;86.56;101716.13;5109902;28;20023;-68
2022/05/26 03:23:11;;;;;;;21.45;13.52;;;;;;;13.24;86.21;101712.56;5115153;27;20153;-65
2022/05/26 03:25:37;;;;;;;26.40;14.13;;;;;;;13.21;86.29;101710.22;5130072;27;20035;-66
2022/05/26 03:28:02;;;;;;;23.60;13.98;;;;;;;13.23;86.57;101726.56;5125684;27;20053;-67
2022/05/26 03:30:28;;;;;;;25.33;14.20;;;;;;;13.27;86.09;101717.56;5119719;27;20118;-64
2022/05/26 03:32:53;;;;;;;23.92;14.07;;;;;;;13.17;86.50;101716.59;5130361;27;20453;-64
2022/05/26 03:40:48;;;;;;;25.05;14.30;;;;;;;13.25;86.53;101727.28;5113453;27;20088;-68
2022/05/26 03:43:15;;;;;;;26.17;14.40;;;;;;;13.18;86.98;101731.25;5128813;27;20102;-68
2022/05/26 03:45:41;;;;;;;25.50;14.10;;;;;;;13.21;86.57;101728.47;5128805;27;20023;-63
2022/05/26 03:48:06;;;;;;;23.55;13.38;;;;;;;13.21;86.75;101738.88;5130152;27;20075;-64
2022/05/26 03:50:33;;;;;;;26.88;13.82;;;;;;;13.17;86.81;101740.03;5115371;27;20035;-64
2022/05/26 03:52:59;;;;;;;26.67;13.85;;;;;;;13.14;86.92;101737.69;5109800;28;20051;-64
2022/05/26 03:55:25;;;;;;;25.80;12.98;;;;;;;13.22;86.49;101740.53;5109338;28;20058;-64
2022/05/26 03:57:51;;;;;;;22.23;12.63;;;;;;;13.15;86.77;101739.31;5117075;27;20123;-64
2022/05/26 04:00:18;;;;;;;23.77;12.50;;;;;;;13.14;86.93;101748.09;5128787;27;20464;-68
2022/05/26 04:02:44;;;;;;;24.70;12.20;;;;;;;13.18;86.41;101746.88;5126449;27;20035;-64
2022/05/26 04:05:11;;;;;;;26.13;12.27;;;;;;;13.16;86.95;101754.00;5129683;27;20024;-64
2022/05/26 04:07:37;;;;;;;25.10;11.77;;;;;;;13.20;86.79;101758.03;5129441;27;20068;-64
2022/05/26 04:10:05;;;;;;;21.92;11.30;;;;;;;13.19;86.95;101761.59;5129176;27;20023;-64
2022/05/26 04:12:31;;;;;;;23.70;11.93;;;;;;;13.13;87.53;101751.66;5128947;27;20466;-64
2022/05/26 04:14:56;;;;;;;24.23;11.63;;;;;;;13.20;86.90;101768.47;5129505;27;20106;-64
2022/05/26 04:17:22;;;;;;;24.95;11.27;;;;;;;13.15;87.38;101754.97;5129366;27;20050;-64
2022/05/26 04:19:47;;;;;;;25.00;11.75;;;;;;;13.13;87.73;101756.00;5122220;27;20395;-64
2022/05/26 04:22:15;;;;;;;27.35;11.18;;;;;;;13.14;87.33;101768.94;5107699;28;20115;-64
2022/05/26 04:24:42;;;;;;;23.67;10.40;;;;;;;13.13;87.40;101756.88;5108314;28;20047;-66
2022/05/26 04:27:08;;;;;;;25.45;10.93;;;;;;;13.13;87.75;101763.81;5108937;28;20066;-65
2022/05/26 04:29:35;;;;;;;23.25;10.52;;;;;;;13.06;87.77;101766.06;5113318;27;20055;-65
2022/05/26 04:32:01;;;;;;;21.05;10.25;;;;;;;13.12;87.90;101765.59;5111890;27;20420;-66
2022/05/26 04:34:26;;;;;;;26.58;11.38;;;;;;;13.08;88.25;101779.00;5108646;28;20054;-66
2022/05/26 04:36:52;;;;;;;22.67;10.45;;;;;;;13.08;88.26;101773.78;5109069;28;20383;-64
2022/05/26 04:39:17;;;;;;;24.83;10.10;;;;;;;13.13;87.57;101782.91;5108847;27;20039;-64
2022/05/26 04:41:44;;;;;;;25.10;10.90;;;;;;;12.96;87.81;101775.53;5128817;27;20035;-64
2022/05/26 04:44:15;;;;;;;22.48;9.65;;;;;;;13.08;87.95;101789.41;5127486;27;20523;-64
2022/05/26 04:46:40;;;;;;;23.60;10.25;;;;;;;13.09;88.39;101791.06;5128926;27;20023;-64
2022/05/26 04:49:07;;;;;;;24.45;10.38;;;;;;;13.13;88.03;101793.34;5128185;27;20041;-64
2022/05/26 04:51:34;;;;;;;24.10;10.57;;;;;;;13.21;87.90;101798.78;5127589;27;20035;-64
2022/05/26 04:54:00;;;;;;;23.58;10.63;;;;;;;13.26;87.79;101799.28;5128519;27;20031;-66
2022/05/26 04:56:26;;;;;;;24.50;10.80;;;;;;;13.32;88.08;101802.34;5128489;27;20035;-65
2022/05/26 04:58:52;;;;;;;23.65;10.32;;;;;;;13.38;87.85;101812.31;5111740;27;20495;-64
2022/05/26 05:01:19;;;;;;;23.73;10.57;;;;;;;13.38;87.62;101805.31;5108842;27;20115;-67
2022/05/26 05:03:46;;;;;;;24.65;9.73;;;;;;;13.45;87.42;101816.09;5120636;27;20076;-68
2022/05/26 05:06:13;;;;;;;24.60;9.52;;;;;;;13.40;87.19;101810.38;5123450;27;20023;-68
2022/05/26 05:08:38;;;;;;;25.08;9.27;;;;;;;13.40;87.56;101815.59;5113471;27;20070;-66
2022/05/26 05:11:04;;;;;;;24.70;10.18;;;;;;;13.46;86.97;101817.72;5115619;27;20480;-66
2022/05/26 05:13:31;;;;;;;25.95;9.57;;;;;;;13.45;87.39;101829.94;5128617;27;20027;-64
2022/05/26 05:16:05;;;;;;;24.55;9.60;;;;;;;13.43;87.46;101831.00;5127826;27;20027;-63
2022/05/26 05:18:30;;;;;;;19.70;9.23;;;;;;;13.45;87.62;101832.53;5127969;27;20147;-65
2022/05/26 05:21:04;;;;;;;20.52;8.45;;;;;;;13.50;87.58;101832.19;5122613;27;20057;-65
2022/05/26 05:23:29;;;;;;;24.38;8.82;;;;;;;13.54;87.13;101824.03;5107053;28;20047;-64
2022/05/26 05:25:56;;;;;;;25.05;9.45;;;;;;;13.51;87.76;101833.84;5107903;28;20066;-64
2022/05/26 05:28:29;;;;;;;21.55;8.48;;;;;;;13.55;87.49;101841.31;5107554;28;20055;-64
2022/05/26 05:31:11;;;;;;;21.25;8.68;;;;;;;13.59;87.58;101839.31;5108518;28;20037;-66
2022/05/26 05:33:42;;;;;;;23.45;9.30;;;;;;;13.63;87.02;101840.69;5109716;28;20110;-65
2022/05/26 05:36:11;;;;;;;21.60;8.95;;;;;;;13.66;87.19;101843.09;5107376;28;20026;-65
2022/05/26 05:38:38;;;;;;;21.42;8.43;;;;;;;13.66;87.31;101837.88;5107147;28;20023;-65
2022/05/26 05:41:04;;;;;;;29.77;8.85;;;;;;;13.68;87.05;101849.00;5125855;28;20062;-64
2022/05/26 05:43:31;;;;;;;26.20;8.90;;;;;;;13.80;86.97;101849.81;5127508;27;20458;-66
2022/05/26 05:45:57;;;;;;;23.63;8.23;;;;;;;13.79;86.71;101848.97;5128478;27;20062;-63
2022/05/26 05:48:22;;;;;;;20.80;8.18;;;;;;;13.86;86.36;101858.94;5116788;28;20058;-64
2022/05/26 05:50:48;;;;;;;21.80;8.15;;;;;;;13.81;86.76;101860.09;5112781;27;20020;-64
2022/05/26 05:53:15;;;;;;;21.23;8.10;;;;;;;13.86;86.62;101858.94;5119443;27;20555;-69
2022/05/26 05:55:41;;;;;;;22.55;8.25;;;;;;;13.94;86.67;101861.78;5107079;28;20023;-64
2022/05/26 05:58:08;;;;;;;21.20;7.97;;;;;;;13.91;86.99;101857.63;5117706;28;20443;-65
2022/05/26 06:00:34;;;;;;;21.98;7.95;;;;;;;14.02;86.11;101859.38;5118701;27;20020;-66
2022/05/26 06:02:59;;;;;;;19.50;7.65;;;;;;;14.02;86.00;101867.19;5127070;27;20035;-65
2022/05/26 06:05:25;;;;;;;18.70;7.97;;;;;;;14.02;85.68;101877.63;5131641;27;20348;-65
2022/05/26 06:07:50;;;;;;;19.67;7.68;;;;;;;14.06;85.74;101871.22;5124052;27;20027;-65
2022/05/26 06:10:16;;;;;;;22.95;7.55;;;;;;;14.04;85.74;101878.31;5111138;28;20417;-64
2022/05/26 06:12:41;;;;;;;21.15;7.40;;;;;;;14.11;85.33;101876.91;5122358;27;20410;-67
2022/05/26 06:15:07;;;;;;;19.80;7.32;;;;;;;14.14;85.24;101879.25;5127528;27;20022;-64
2022/05/26 06:17:32;;;;;;;21.27;7.70;;;;;;;14.21;85.57;101880.41;5131196;27;20034;-67
2022/05/26 06:19:58;;;;;;;21.17;7.65;;;;;;;14.31;85.60;101877.91;5127389;27;20366;-64
2022/05/26 06:22:24;;;;;;;16.23;6.90;;;;;;;14.42;84.96;101882.28;5109375;28;20027;-64
2022/05/26 06:24:49;;;;;;;18.85;7.90;;;;;;;14.44;84.19;101880.34;5128152;27;20088;-65
2022/05/26 06:30:05;;;;;;;18.42;7.10;;;;;;;14.53;84.01;101892.69;5114305;27;20120;-66
2022/05/26 06:38:26;;;;;;;21.50;7.18;;;;;;;14.71;83.50;101899.03;5085289;28;20036;-66
2022/05/26 06:40:52;;;;;;;18.65;7.15;;;;;;;14.80;83.69;101903.50;5085819;28;20476;-64
2022/05/26 06:43:18;;;;;;;19.33;7.68;;;;;;;14.84;83.55;101898.84;5069845;28;20066;-65
2022/05/26 06:45:46;;;;;;;20.85;7.05;;;;;;;14.86;83.52;101900.38;5077752;28;20091;-66
2022/05/26 06:48:11;;;;;;;20.80;7.65;;;;;;;14.97;82.58;101914.34;5087421;28;20097;-64
2022/05/26 06:50:38;;;;;;;17.85;7.30;;;;;;;15.02;82.92;101917.38;5086073;28;20683;-66
2022/05/26 06:53:04;;;;;;;16.20;6.15;;;;;;;15.06;82.14;101913.56;5086499;28;20058;-64
2022/05/26 06:55:29;;;;;;;16.52;6.40;;;;;;;15.10;81.99;101912.38;5081488;28;20559;-65
2022/05/26 06:57:54;;;;;;;19.00;6.97;;;;;;;15.03;80.50;101919.06;5084109;28;20034;-66
2022/05/26 07:00:20;;;;;;;16.88;6.57;;;;;;;15.12;80.82;101923.50;5084502;28;20122;-64
2022/05/26 07:02:46;;;;;;;15.07;6.10;;;;;;;15.19;80.16;101918.59;5066329;28;20488;-64
2022/05/26 07:05:12;;;;;;;16.08;6.53;;;;;;;15.17;79.30;101916.13;5066466;28;20047;-64
2022/05/26 07:07:39;;;;;;;16.00;5.93;;;;;;;15.13;78.41;101933.00;5084364;28;20036;-65
2022/05/26 07:10:06;;;;;;;14.38;6.35;;;;;;;15.09;78.43;101929.00;5083801;28;20361;-65
2022/05/26 07:12:32;;;;;;;16.33;6.63;;;;;;;15.12;77.98;101931.34;5093613;27;20126;-64
2022/05/26 07:14:58;;;;;;;16.35;6.55;;;;;;;15.21;78.93;101933.22;5111436;27;20137;-64
2022/05/26 07:17:23;;;;;;;14.00;5.90;;;;;;;15.35;78.48;101935.47;5119399;27;20531;-65
2022/05/26 07:19:49;;;;;;;13.85;6.13;;;;;;;15.43;78.03;101936.63;5114929;27;20020;-65
2022/05/26 07:22:15;;;;;;;14.38;5.97;;;;;;;15.49;77.46;101920.44;5111601;27;20103;-64
2022/05/26 07:24:41;;;;;;;12.23;5.57;;;;;;;15.57;76.93;101933.66;5117180;27;20047;-66
2022/05/26 07:27:07;;;;;;;14.60;5.88;;;;;;;15.67;77.68;101937.19;5109368;28;20038;-64
2022/05/26 07:29:33;;;;;;;13.98;6.20;;;;;;;15.78;76.83;101946.75;5124600;27;20035;-65
2022/05/26 07:32:01;;;;;;;13.90;5.72;;;;;;;15.75;76.77;101942.59;5130092;27;20530;-66
2022/05/26 07:34:27;;;;;;;14.17;6.00;;;;;;;15.98;75.31;101955.47;5120288;27;20088;-65
2022/05/26 07:42:25;;;;;;;11.13;5.15;;;;;;;16.12;74.26;101949.88;5130068;27;20042;-64
2022/05/26 07:44:54;;;;;;;11.00;4.47;;;;;;;16.26;74.19;101952.09;5130314;27;20087;-65
2022/05/26 07:47:20;;;;;;;12.02;4.13;;;;;;;16.30;72.58;101953.50;5129052;27;20485;-64
2022/05/26 07:49:49;;;;;;;10.88;4.15;;;;;;;16.44;73.60;101960.97;5112522;27;20034;-64
2022/05/26 07:52:15;;;;;;;12.00;4.72;;;;;;;16.52;72.71;101952.44;5107834;28;20035;-65
2022/05/26 07:54:41;;;;;;;10.65;4.50;;;;;;;16.72;73.21;101953.31;5109269;28;20028;-66
2022/05/26 07:57:16;;;;;;;13.38;4.43;;;;;;;16.81;72.67;101952.47;5112610;27;20045;-64
2022/05/26 07:59:42;;;;;;;11.07;3.80;;;;;;;16.76;70.74;101952.06;5129123;27;20038;-64
2022/05/26 08:02:07;;;;;;;11.38;3.90;;;;;;;16.74;70.25;101956.59;5123223;27;20027;-64
2022/05/26 08:04:33;;;;;;;10.13;3.60;;;;;;;16.71;70.35;101962.13;5106135;27;20034;-64
2022/05/26 08:06:58;;;;;;;10.85;4.70;;;;;;;16.69;71.12;101964.88;5113413;27;20032;-64
2022/05/26 08:09:24;;;;;;;11.13;5.20;;;;;;;16.56;71.23;101971.31;5121586;27;20033;-65
2022/05/26 08:11:49;;;;;;;13.95;5.05;;;;;;;16.71;72.03;101967.38;5129394;27;20411;-64
2022/05/26 08:14:15;;;;;;;11.75;6.05;;;;;;;16.80;72.95;101966.53;5124099;27;20050;-71
2022/05/26 08:16:41;;;;;;;13.75;5.82;;;;;;;16.93;71.86;101972.34;5112741;27;20498;-65
2022/05/26 08:19:06;;;;;;;12.30;5.25;;;;;;;16.78;71.22;101978.94;5112073;27;20534;-64
2022/05/26 08:21:33;;;;;;;14.68;5.00;;;;;;;16.89;70.68;101973.56;5108043;28;20054;-66
2022/05/26 08:24:00;;;;;;;9.48;4.63;;;;;;;16.59;68.79;101978.91;5108552;28;20467;-65
2022/05/26 08:26:26;;;;;;;12.38;5.00;;;;;;;16.73;71.09;101979.34;5107435;28;20023;-66
2022/05/26 08:28:51;;;;;;;12.00;5.60;;;;;;;16.99;71.52;101977.03;5113142;27;20027;-65
2022/05/26 08:31:16;;;;;;;13.05;6.20;;;;;;;17.09;71.14;101976.16;5121005;27;20031;-65
2022/05/26 08:33:42;;;;;;;12.00;6.40;;;;;;;17.03;70.89;101976.72;5122039;27;20459;-65
2022/05/26 08:36:13;;;;;;;11.75;4.88;;;;;;;16.89;69.45;101991.91;5113131;27;20027;-65
2022/05/26 08:38:39;;;;;;;11.50;4.80;;;;;;;17.11;70.27;101974.25;5114676;27;20058;-66
2022/05/26 08:41:06;;;;;;;12.35;5.30;;;;;;;17.17;69.99;101989.41;5125429;27;20069;-68
2022/05/26 08:43:39;;;;;;;9.25;4.07;;;;;;;17.39;69.45;101998.78;5128563;27;20471;-66
2022/05/26 08:46:07;;;;;;;15.57;4.70;;;;;;;17.40;69.44;101996.00;5128432;27;20023;-64
2022/05/26 08:48:50;;;;;;;;;;;;;;;17.57;70.52;101996.25;5128325;27;20042;-67
2022/05/26 08:51:40;;;;;;;13.95;3.75;;;;;;;17.36;68.03;101994.63;5128802;27;19954;-66
2022/05/26 08:54:10;;;;;;;9.25;3.85;;;;;;;17.48;68.84;101998.75;5125586;27;20122;-66
2022/05/26 08:56:35;;;;;;;9.93;4.00;;;;;;;17.39;67.29;101989.13;5107932;28;20038;-65
2022/05/26 08:59:09;;;;;;;8.93;3.63;;;;;;;17.40;66.90;101998.63;5124623;27;20412;-64
2022/05/26 09:01:35;;;;;;;10.75;3.90;;;;;;;17.42;67.56;101999.31;5120297;27;20031;-65
2022/05/26 09:04:01;;;;;;;10.63;3.63;;;;;;;17.39;68.12;102007.47;5123234;27;20064;-66
2022/05/26 09:06:28;;;;;;;8.82;2.95;;;;;;;17.37;66.09;102006.75;5123549;27;20534;-69
2022/05/26 09:14:25;;;;;;;8.07;3.13;;;;;;;17.90;66.13;102005.44;5111648;27;20047;-65
2022/05/26 09:17:05;;;;;;;9.52;2.83;;;;;;;17.71;63.75;102008.91;5126985;27;20082;-64
2022/05/26 09:19:53;;;;;;;9.52;2.88;;;;;;;17.92;65.77;102014.81;5116764;27;20031;-64
2022/05/26 09:22:45;;;;;;;7.65;3.08;;;;;;;18.01;65.16;102019.19;5147494;27;20093;-66
2022/05/26 09:25:35;;;;;;;9.70;3.15;;;;;;;18.10;65.24;102020.13;5138563;27;20088;-64
2022/05/26 09:28:01;;;;;;;9.40;2.92;;;;;;;17.96;63.09;102012.72;5128191;27;20031;-63
2022/05/26 09:30:30;;;;;;;11.23;2.72;;;;;;;18.15;63.45;102024.94;5127244;27;20474;-64
2022/05/26 09:32:56;;;;;;;10.88;2.90;;;;;;;18.18;62.82;102028.13;5127843;27;20386;-64
2022/05/26 09:35:26;;;;;;;7.63;2.42;;;;;;;18.31;62.51;102028.59;5123000;27;20112;-65
2022/05/26 09:38:02;;;;;;;8.20;2.55;;;;;;;18.20;63.03;102030.59;5107132;28;20024;-64
2022/05/26 09:40:33;;;;;;;7.35;2.60;;;;;;;18.23;62.51;102031.09;5107201;28;20482;-64
2022/05/26 09:43:18;;;;;;;7.40;2.35;;;;;;;18.21;62.00;102034.84;5119854;28;20035;-65
2022/05/26 09:45:48;;;;;;;8.68;2.28;;;;;;;18.13;62.49;102035.59;5123272;28;20063;-64
2022/05/26 09:48:15;;;;;;;9.13;2.78;;;;;;;18.35;63.76;102029.13;5127598;27;20050;-64
2022/05/26 09:50:49;;;;;;;8.52;2.38;;;;;;;18.41;61.64;102039.06;5110408;27;20034;-63
2022/05/26 09:53:29;;;;;;;8.85;2.58;;;;;;;18.33;61.58;102025.81;5107175;28;20531;-64
2022/05/26 09:55:55;;;;;;;7.25;2.40;;;;;;;18.37;61.14;102036.84;5126007;28;20072;-64
2022/05/26 09:58:34;;;;;;;5.18;1.60;;;;;;;18.43;59.71;102046.78;5125885;28;20023;-64
2022/05/26 10:01:06;;;;;;;5.53;1.50;;;;;;;18.62;60.18;102045.84;5127419;27;20033;-66
2022/05/26 10:03:50;;;;;;;6.68;1.70;;;;;;;18.43;59.83;102046.78;5125292;27;20459;-64
2022/05/26 10:06:33;;;;;;;6.82;2.10;;;;;;;18.45;60.85;102050.91;5121237;28;20020;-66
2022/05/26 10:09:06;;;;;;;7.65;2.35;;;;;;;18.73;61.38;102043.03;5107791;28;20035;-68
2022/05/26 10:11:53;;;;;;;6.30;1.88;;;;;;;18.89;61.66;102045.81;5106797;28;20031;-63
2022/05/26 10:14:43;;;;;;;6.18;1.85;;;;;;;18.76;59.39;102045.38;5122536;28;20075;-63
2022/05/26 10:17:13;;;;;;;7.00;1.83;;;;;;;18.85;57.52;102052.34;5127778;28;20031;-63
2022/05/26 10:19:54;;;;;;;6.93;1.70;;;;;;;18.84;57.38;102056.78;5125930;27;20023;-64
2022/05/26 10:22:31;;;;;;;8.10;2.03;;;;;;;18.97;57.87;102055.56;5109384;28;20031;-62
2022/05/26 10:25:13;;;;;;;6.63;2.30;;;;;;;19.15;59.06;102053.75;5119844;28;20487;-65
2022/05/26 10:28:27;;;;;;;7.47;2.28;;;;;;;19.29;59.97;102057.69;5108495;28;20360;-63
2022/05/26 10:31:11;;;;;;;7.15;2.13;;;;;;;19.25;57.27;102053.69;5082285;28;20093;-63
2022/05/26 10:33:48;;;;;;;6.55;2.10;;;;;;;19.50;57.25;102052.91;5080666;28;20028;-63
2022/05/26 10:36:21;;;;;;;4.72;1.75;;;;;;;19.59;57.33;102045.91;5080231;28;20027;-65
2022/05/26 10:38:55;;;;;;;7.85;2.60;;;;;;;19.61;58.15;102065.84;5080347;28;20031;-65
2022/05/26 10:41:45;;;;;;;7.35;2.20;;;;;;;19.56;59.06;102049.66;5063395;28;20036;-67
2022/05/26 10:44:13;;;;;;;7.80;2.63;;;;;;;19.52;57.68;102066.72;5064022;28;20032;-63
2022/05/26 10:46:43;;;;;;;7.95;1.95;;;;;;;19.67;57.63;102053.03;5077743;28;20063;-63
2022/05/26 10:49:18;;;;;;;8.23;2.38;;;;;;;19.58;57.43;102071.41;5078503;28;20056;-64
2022/05/26 10:51:53;;;;;;;7.00;2.15;;;;;;;19.51;57.00;102057.19;5086929;28;20047;-65
2022/05/26 10:54:38;;;;;;;7.32;2.00;;;;;;;19.55;56.23;102071.66;5076092;28;20054;-63
2022/05/26 10:57:20;;;;;;;7.78;2.55;;;;;;;19.51;57.48;102086.13;5068887;28;20039;-64
2022/05/26 11:00:05;;;;;;;6.57;2.38;;;;;;;19.66;59.33;102072.44;5086498;28;20027;-62
2022/05/26 11:02:52;;;;;;;7.38;2.22;;;;;;;19.63;56.72;102074.41;5082971;28;20144;-63
2022/05/26 11:05:32;;;;;;;7.18;2.10;;;;;;;19.66;55.86;102061.91;5105901;27;20039;-65
2022/05/26 11:08:24;;;;;;;6.65;1.95;;;;;;;19.47;56.50;102079.53;5113228;27;20034;-66
2022/05/26 11:10:56;;;;;;;8.27;2.00;;;;;;;19.36;55.45;102074.50;5109786;28;20028;-64
2022/05/26 11:13:32;;;;;;;6.85;1.90;;;;;;;19.35;56.89;102067.59;5119429;27;20050;-63
2022/05/26 11:19:24;;;;;;;7.20;2.10;;;;;;;19.57;57.61;102064.47;5111104;27;20038;-64
2022/05/26 11:21:51;;;;;;;6.53;2.05;;;;;;;19.51;56.20;102070.34;5114542;27;20019;-62
2022/05/26 11:24:16;;;;;;;6.70;2.05;;;;;;;19.59;56.10;102073.06;5109565;27;20532;-63
2022/05/26 11:26:49;;;;;;;7.03;2.40;;;;;;;19.59;56.27;102072.25;5111179;27;20052;-63
2022/05/26 11:29:24;;;;;;;7.85;2.28;;;;;;;19.74;56.50;102054.91;5108388;27;20540;-62
2022/05/26 11:38:01;;;;;;;9.88;2.58;;;;;;;19.92;56.33;102068.00;5051781;28;20127;-64
2022/05/26 11:40:43;;;;;;;7.10;1.88;;;;;;;20.01;56.37;102056.53;5064786;28;20060;-66
2022/05/26 11:43:09;;;;;;;7.22;2.00;;;;;;;19.98;55.56;102048.94;5066275;28;20067;-63
2022/05/26 11:45:47;;;;;;;7.82;2.33;;;;;;;19.89;55.88;102042.81;5064993;28;20043;-68
2022/05/26 11:48:31;;;;;;;6.97;2.03;;;;;;;20.22;56.04;102050.03;5066099;28;20044;-69
2022/05/26 11:51:20;;;;;;;6.43;2.10;;;;;;;20.02;55.80;102042.41;5060571;28;20033;-64
2022/05/26 11:53:47;;;;;;;5.65;1.80;;;;;;;19.88;55.04;102045.59;5052696;28;20572;-63
2022/05/26 11:56:25;;;;;;;6.32;1.95;;;;;;;20.02;54.82;102058.19;5066633;28;20029;-63
2022/05/26 11:59:26;;;;;;;7.20;1.85;;;;;;;19.97;55.30;102044.66;5065253;28;20043;-65
2022/05/26 12:02:00;;;;;;;7.70;1.90;;;;;;;19.82;55.61;102043.59;5048828;28;20028;-68
2022/05/26 12:04:32;;;;;;;4.85;1.55;;;;;;;19.68;55.26;102045.00;5063488;28;20044;-64
2022/05/26 12:07:00;;;;;;;6.60;2.00;;;;;;;19.67;55.33;102031.97;5065297;28;20646;-65
2022/05/26 12:09:43;;;;;;;;;;;;;;;19.94;56.05;102034.44;5060649;28;20047;-63
2022/05/26 12:12:13;;;;;;;6.32;1.80;;;;;;;19.65;55.04;102033.94;5065446;28;20014;-65